Impacts METAR Board INFO
IDs:

KSEA - Seattle-Tacoma Intl, WA, US

Updated at: 1409 UTC 15 Dec 2017
Potential Impact None Slight Moderate High
Time15/02Z 15/03Z 15/04Z 15/05Z 15/06Z 15/07Z 15/08Z 15/09Z 15/10Z 15/11Z 15/12Z 15/13Z 15/14Z
VIS10 10 8 7 8 10 10 10 10 10 10 10 10
CIG250 250 250 -- -- -- 250 210 90 90 70 60 60
CoverBKNBKNBKNSCTSCTFEWBKNBKNBKNOVCOVCOVCOVC
FltCatVFRVFRVFRVFRVFRVFRVFRVFRVFRVFRVFRVFRVFR
WX-------------------------RA
WDir31014016018016013014015000130130140
WSpd4 7 3 4 3 7 5 5 0 0 5 4 6
WGst-- -- -- -- -- -- -- -- -- -- -- -- --
Raw hourly METARs
KSEA 150153Z 31004KT 10SM BKN250 06/02 A3027 RMK AO2 SLP259 T00560022
KSEA 150253Z 14007KT 10SM BKN250 06/03 A3025 RMK AO2 SLP253 T00560028 58005
KSEA 150353Z 16003KT 8SM BKN250 04/03 A3023 RMK AO2 SLP247 T00440033 $
KSEA 150453Z 18004KT 7SM SCT250 04/03 A3023 RMK AO2 SLP247 T00390028 $
KSEA 150553Z 16003KT 8SM SCT250 04/03 A3024 RMK AO2 SLP247 T00440028 10083 20033 55004 $
KSEA 150653Z 13007KT 10SM FEW250 04/02 A3024 RMK AO2 SLP248 T00390022 $
KSEA 150753Z 14005KT 10SM BKN250 04/02 A3023 RMK AO2 SLP247 T00390017 401000022 $
KSEA 150853Z 15005KT 10SM BKN210 04/00 A3019 RMK AO2 SLP233 T00390000 58015 $
KSEA 150953Z 00000KT 10SM BKN090 04/00 A3019 RMK AO2 SLP233 T00390000 $
KSEA 151053Z 00000KT 10SM SCT070 OVC090 04/02 A3020 RMK AO2 SLP237 T00440017 $
KSEA 151153Z 13005KT 10SM OVC070 04/02 A3020 RMK AO2 SLP236 T00440022 10050 20028 50003 $
KSEA 151253Z 13004KT 10SM OVC060 04/01 A3019 RMK AO2 SLP232 T00390006 $
KSEA 151353Z 14006KT 10SM -RA BKN060 OVC075 04/01 A3019 RMK AO2 RAB05E23B44 SLP231 P0000 T00440011 $